sensor_id;sensor_type;location;lat;lon;timestamp;P1;durP1;ratioP1;P2;durP2;ratioP2
68379;SDS011;57711;53.196;19.638;2023-04-12T00:02:18;17.40;;;8.30;;
68379;SDS011;57711;53.196;19.638;2023-04-12T00:04:45;15.60;;;9.80;;
68379;SDS011;57711;53.196;19.638;2023-04-12T00:07:22;15.60;;;9.80;;
68379;SDS011;57711;53.196;19.638;2023-04-12T00:09:49;22.10;;;12.70;;
68379;SDS011;57711;53.196;19.638;2023-04-12T00:12:17;22.60;;;12.30;;
68379;SDS011;57711;53.196;19.638;2023-04-12T00:14:45;19.90;;;11.20;;
68379;SDS011;57711;53.196;19.638;2023-04-12T00:17:13;20.90;;;10.50;;
68379;SDS011;57711;53.196;19.638;2023-04-12T00:19:40;16.40;;;8.90;;
68379;SDS011;57711;53.196;19.638;2023-04-12T00:22:08;19.20;;;9.80;;
68379;SDS011;57711;53.196;19.638;2023-04-12T00:24:37;16.80;;;9.60;;
68379;SDS011;57711;53.196;19.638;2023-04-12T00:27:05;22.20;;;11.40;;
68379;SDS011;57711;53.196;19.638;2023-04-12T00:29:33;33.50;;;14.30;;
68379;SDS011;57711;53.196;19.638;2023-04-12T00:32:00;31.00;;;12.60;;
68379;SDS011;57711;53.196;19.638;2023-04-12T00:34:29;19.10;;;9.20;;
68379;SDS011;57711;53.196;19.638;2023-04-12T00:36:56;18.80;;;10.40;;
68379;SDS011;57711;53.196;19.638;2023-04-12T00:39:24;12.50;;;8.20;;
68379;SDS011;57711;53.196;19.638;2023-04-12T00:41:52;9.70;;;7.20;;
68379;SDS011;57711;53.196;19.638;2023-04-12T00:44:19;14.30;;;8.40;;
68379;SDS011;57711;53.196;19.638;2023-04-12T00:46:46;14.10;;;8.90;;
68379;SDS011;57711;53.196;19.638;2023-04-12T00:49:13;13.40;;;6.60;;
68379;SDS011;57711;53.196;19.638;2023-04-12T00:51:42;10.10;;;6.10;;
68379;SDS011;57711;53.196;19.638;2023-04-12T00:54:09;8.10;;;5.50;;
68379;SDS011;57711;53.196;19.638;2023-04-12T00:56:37;8.80;;;5.50;;
68379;SDS011;57711;53.196;19.638;2023-04-12T00:59:06;9.00;;;6.60;;
68379;SDS011;57711;53.196;19.638;2023-04-12T01:01:34;13.50;;;8.20;;
68379;SDS011;57711;53.196;19.638;2023-04-12T01:04:01;12.10;;;7.70;;
68379;SDS011;57711;53.196;19.638;2023-04-12T01:06:33;47.30;;;22.10;;
68379;SDS011;57711;53.196;19.638;2023-04-12T01:14:35;13.30;;;7.10;;
68379;SDS011;57711;53.196;19.638;2023-04-12T01:17:29;9.70;;;5.50;;
68379;SDS011;57711;53.196;19.638;2023-04-12T01:20:08;10.20;;;6.30;;
68379;SDS011;57711;53.196;19.638;2023-04-12T01:28:15;14.60;;;6.60;;
68379;SDS011;57711;53.196;19.638;2023-04-12T01:30:50;13.10;;;6.30;;
68379;SDS011;57711;53.196;19.638;2023-04-12T01:33:20;10.30;;;6.20;;
68379;SDS011;57711;53.196;19.638;2023-04-12T01:35:49;9.70;;;5.90;;
68379;SDS011;57711;53.196;19.638;2023-04-12T01:38:18;10.10;;;7.40;;
68379;SDS011;57711;53.196;19.638;2023-04-12T01:40:46;10.30;;;6.70;;
68379;SDS011;57711;53.196;19.638;2023-04-12T01:43:14;8.70;;;6.70;;
68379;SDS011;57711;53.196;19.638;2023-04-12T01:45:41;12.50;;;7.30;;
68379;SDS011;57711;53.196;19.638;2023-04-12T01:48:09;8.50;;;6.50;;
68379;SDS011;57711;53.196;19.638;2023-04-12T01:50:49;9.40;;;6.60;;
68379;SDS011;57711;53.196;19.638;2023-04-12T01:56:10;8.50;;;6.20;;
68379;SDS011;57711;53.196;19.638;2023-04-12T01:58:38;11.40;;;6.80;;
68379;SDS011;57711;53.196;19.638;2023-04-12T02:01:08;12.30;;;6.50;;
68379;SDS011;57711;53.196;19.638;2023-04-12T02:03:39;9.00;;;5.50;;
68379;SDS011;57711;53.196;19.638;2023-04-12T02:06:08;10.80;;;7.30;;
68379;SDS011;57711;53.196;19.638;2023-04-12T02:08:36;27.00;;;14.30;;
68379;SDS011;57711;53.196;19.638;2023-04-12T02:11:07;17.00;;;11.20;;
68379;SDS011;57711;53.196;19.638;2023-04-12T02:13:35;17.20;;;11.20;;
68379;SDS011;57711;53.196;19.638;2023-04-12T02:16:03;18.60;;;12.60;;
68379;SDS011;57711;53.196;19.638;2023-04-12T02:18:32;12.60;;;9.70;;
68379;SDS011;57711;53.196;19.638;2023-04-12T02:21:04;14.90;;;10.20;;
68379;SDS011;57711;53.196;19.638;2023-04-12T02:23:33;29.40;;;15.60;;
68379;SDS011;57711;53.196;19.638;2023-04-12T02:26:00;17.70;;;11.40;;
68379;SDS011;57711;53.196;19.638;2023-04-12T02:28:28;13.60;;;9.70;;
68379;SDS011;57711;53.196;19.638;2023-04-12T02:30:55;10.90;;;7.70;;
68379;SDS011;57711;53.196;19.638;2023-04-12T02:33:23;10.20;;;6.80;;
68379;SDS011;57711;53.196;19.638;2023-04-12T02:35:53;9.50;;;6.50;;
68379;SDS011;57711;53.196;19.638;2023-04-12T02:38:20;10.00;;;7.20;;
68379;SDS011;57711;53.196;19.638;2023-04-12T02:40:48;11.30;;;7.80;;
68379;SDS011;57711;53.196;19.638;2023-04-12T02:43:16;14.80;;;9.60;;
68379;SDS011;57711;53.196;19.638;2023-04-12T02:45:45;19.20;;;10.30;;
68379;SDS011;57711;53.196;19.638;2023-04-12T02:48:13;16.70;;;9.10;;
68379;SDS011;57711;53.196;19.638;2023-04-12T02:50:41;19.20;;;11.30;;
68379;SDS011;57711;53.196;19.638;2023-04-12T02:53:17;16.30;;;9.50;;
68379;SDS011;57711;53.196;19.638;2023-04-12T02:55:51;10.50;;;7.10;;
68379;SDS011;57711;53.196;19.638;2023-04-12T02:58:21;9.40;;;6.20;;
68379;SDS011;57711;53.196;19.638;2023-04-12T03:00:50;8.50;;;5.90;;
68379;SDS011;57711;53.196;19.638;2023-04-12T03:03:22;9.30;;;5.90;;
68379;SDS011;57711;53.196;19.638;2023-04-12T03:05:53;24.80;;;10.00;;
68379;SDS011;57711;53.196;19.638;2023-04-12T03:08:21;13.70;;;6.40;;
68379;SDS011;57711;53.196;19.638;2023-04-12T03:10:54;12.70;;;6.90;;
68379;SDS011;57711;53.196;19.638;2023-04-12T03:13:22;12.20;;;8.50;;
68379;SDS011;57711;53.196;19.638;2023-04-12T03:15:55;15.50;;;8.50;;
68379;SDS011;57711;53.196;19.638;2023-04-12T03:18:30;8.90;;;6.40;;
68379;SDS011;57711;53.196;19.638;2023-04-12T03:20:58;11.30;;;7.70;;
68379;SDS011;57711;53.196;19.638;2023-04-12T03:23:26;142.70;;;41.60;;
68379;SDS011;57711;53.196;19.638;2023-04-12T03:26:00;56.20;;;25.40;;
68379;SDS011;57711;53.196;19.638;2023-04-12T03:28:34;26.80;;;12.60;;
68379;SDS011;57711;53.196;19.638;2023-04-12T03:31:03;11.10;;;7.30;;
68379;SDS011;57711;53.196;19.638;2023-04-12T03:33:37;12.50;;;7.90;;
68379;SDS011;57711;53.196;19.638;2023-04-12T03:36:06;39.00;;;21.00;;
68379;SDS011;57711;53.196;19.638;2023-04-12T03:38:34;13.90;;;9.00;;
68379;SDS011;57711;53.196;19.638;2023-04-12T03:41:01;10.70;;;6.10;;
68379;SDS011;57711;53.196;19.638;2023-04-12T03:43:34;7.70;;;5.90;;
68379;SDS011;57711;53.196;19.638;2023-04-12T03:46:07;8.00;;;5.70;;
68379;SDS011;57711;53.196;19.638;2023-04-12T03:48:35;9.20;;;6.40;;
68379;SDS011;57711;53.196;19.638;2023-04-12T03:51:04;10.90;;;6.30;;
68379;SDS011;57711;53.196;19.638;2023-04-12T03:53:36;11.30;;;6.50;;
68379;SDS011;57711;53.196;19.638;2023-04-12T03:56:05;9.10;;;6.70;;
68379;SDS011;57711;53.196;19.638;2023-04-12T03:58:32;12.60;;;9.40;;
68379;SDS011;57711;53.196;19.638;2023-04-12T04:01:03;13.50;;;9.70;;
68379;SDS011;57711;53.196;19.638;2023-04-12T04:03:32;21.50;;;14.80;;
68379;SDS011;57711;53.196;19.638;2023-04-12T04:06:06;16.40;;;11.50;;
68379;SDS011;57711;53.196;19.638;2023-04-12T04:08:34;15.70;;;10.70;;
68379;SDS011;57711;53.196;19.638;2023-04-12T04:11:04;11.50;;;8.70;;
68379;SDS011;57711;53.196;19.638;2023-04-12T04:13:37;9.30;;;7.00;;
68379;SDS011;57711;53.196;19.638;2023-04-12T04:16:05;13.80;;;10.30;;
68379;SDS011;57711;53.196;19.638;2023-04-12T04:18:35;13.80;;;7.90;;
68379;SDS011;57711;53.196;19.638;2023-04-12T04:21:08;11.00;;;8.50;;
68379;SDS011;57711;53.196;19.638;2023-04-12T04:23:36;14.70;;;10.20;;
68379;SDS011;57711;53.196;19.638;2023-04-12T04:26:10;13.70;;;9.30;;
68379;SDS011;57711;53.196;19.638;2023-04-12T04:28:43;12.20;;;9.20;;
68379;SDS011;57711;53.196;19.638;2023-04-12T04:31:13;7.60;;;6.90;;
68379;SDS011;57711;53.196;19.638;2023-04-12T04:33:46;14.10;;;11.00;;
68379;SDS011;57711;53.196;19.638;2023-04-12T04:36:13;13.80;;;10.30;;
68379;SDS011;57711;53.196;19.638;2023-04-12T04:38:46;16.00;;;13.50;;
68379;SDS011;57711;53.196;19.638;2023-04-12T04:41:22;13.80;;;10.90;;
68379;SDS011;57711;53.196;19.638;2023-04-12T04:43:56;18.40;;;12.50;;
68379;SDS011;57711;53.196;19.638;2023-04-12T04:46:25;13.40;;;9.00;;
68379;SDS011;57711;53.196;19.638;2023-04-12T04:48:56;18.50;;;11.50;;
68379;SDS011;57711;53.196;19.638;2023-04-12T04:51:24;15.50;;;10.70;;
68379;SDS011;57711;53.196;19.638;2023-04-12T04:53:52;22.70;;;14.80;;
68379;SDS011;57711;53.196;19.638;2023-04-12T04:56:19;17.00;;;12.60;;
68379;SDS011;57711;53.196;19.638;2023-04-12T04:58:50;17.90;;;13.10;;
68379;SDS011;57711;53.196;19.638;2023-04-12T05:01:17;16.30;;;12.40;;
68379;SDS011;57711;53.196;19.638;2023-04-12T05:03:46;16.00;;;12.70;;
68379;SDS011;57711;53.196;19.638;2023-04-12T05:06:16;15.30;;;12.60;;
68379;SDS011;57711;53.196;19.638;2023-04-12T05:08:43;17.80;;;12.40;;
68379;SDS011;57711;53.196;19.638;2023-04-12T05:11:12;17.30;;;13.20;;
68379;SDS011;57711;53.196;19.638;2023-04-12T05:13:40;14.90;;;10.60;;
68379;SDS011;57711;53.196;19.638;2023-04-12T05:16:07;37.50;;;19.20;;
68379;SDS011;57711;53.196;19.638;2023-04-12T05:18:35;20.90;;;11.80;;
68379;SDS011;57711;53.196;19.638;2023-04-12T05:21:03;19.50;;;14.80;;
68379;SDS011;57711;53.196;19.638;2023-04-12T05:23:35;14.50;;;10.70;;
68379;SDS011;57711;53.196;19.638;2023-04-12T05:26:03;15.20;;;11.40;;
68379;SDS011;57711;53.196;19.638;2023-04-12T05:28:31;16.00;;;11.60;;
68379;SDS011;57711;53.196;19.638;2023-04-12T05:30:59;14.60;;;11.00;;
68379;SDS011;57711;53.196;19.638;2023-04-12T05:33:32;18.90;;;11.90;;
68379;SDS011;57711;53.196;19.638;2023-04-12T05:36:00;14.00;;;10.80;;
68379;SDS011;57711;53.196;19.638;2023-04-12T05:38:28;25.40;;;16.10;;
68379;SDS011;57711;53.196;19.638;2023-04-12T05:40:57;30.60;;;20.50;;
68379;SDS011;57711;53.196;19.638;2023-04-12T05:43:25;24.40;;;16.60;;
68379;SDS011;57711;53.196;19.638;2023-04-12T05:45:52;44.90;;;31.40;;
68379;SDS011;57711;53.196;19.638;2023-04-12T05:48:21;33.40;;;21.90;;
68379;SDS011;57711;53.196;19.638;2023-04-12T05:50:49;29.80;;;18.10;;
68379;SDS011;57711;53.196;19.638;2023-04-12T05:53:17;30.60;;;18.10;;
68379;SDS011;57711;53.196;19.638;2023-04-12T05:55:45;15.30;;;10.30;;
68379;SDS011;57711;53.196;19.638;2023-04-12T05:58:12;11.90;;;8.20;;
68379;SDS011;57711;53.196;19.638;2023-04-12T06:00:40;10.40;;;6.80;;
68379;SDS011;57711;53.196;19.638;2023-04-12T06:03:08;12.70;;;8.30;;
68379;SDS011;57711;53.196;19.638;2023-04-12T06:05:37;10.70;;;8.10;;
68379;SDS011;57711;53.196;19.638;2023-04-12T06:08:05;14.30;;;8.50;;
68379;SDS011;57711;53.196;19.638;2023-04-12T06:10:32;11.70;;;7.60;;
68379;SDS011;57711;53.196;19.638;2023-04-12T06:13:00;15.60;;;10.70;;
68379;SDS011;57711;53.196;19.638;2023-04-12T06:15:27;54.00;;;25.80;;
68379;SDS011;57711;53.196;19.638;2023-04-12T06:18:00;50.10;;;22.50;;
68379;SDS011;57711;53.196;19.638;2023-04-12T06:20:27;24.40;;;14.10;;
68379;SDS011;57711;53.196;19.638;2023-04-12T06:22:55;18.90;;;11.20;;
68379;SDS011;57711;53.196;19.638;2023-04-12T06:25:22;15.00;;;9.20;;
68379;SDS011;57711;53.196;19.638;2023-04-12T06:27:50;12.60;;;9.00;;
68379;SDS011;57711;53.196;19.638;2023-04-12T06:30:18;13.00;;;8.80;;
68379;SDS011;57711;53.196;19.638;2023-04-12T06:32:50;18.10;;;11.40;;
68379;SDS011;57711;53.196;19.638;2023-04-12T06:35:17;20.60;;;12.80;;
68379;SDS011;57711;53.196;19.638;2023-04-12T06:37:46;18.30;;;12.00;;
68379;SDS011;57711;53.196;19.638;2023-04-12T06:40:13;19.00;;;12.00;;
68379;SDS011;57711;53.196;19.638;2023-04-12T06:42:40;15.60;;;9.60;;
68379;SDS011;57711;53.196;19.638;2023-04-12T06:45:08;12.70;;;9.20;;
68379;SDS011;57711;53.196;19.638;2023-04-12T06:47:36;26.40;;;14.80;;
68379;SDS011;57711;53.196;19.638;2023-04-12T06:50:04;70.20;;;27.60;;
68379;SDS011;57711;53.196;19.638;2023-04-12T06:52:32;37.00;;;17.80;;
68379;SDS011;57711;53.196;19.638;2023-04-12T06:54:59;33.70;;;18.20;;
68379;SDS011;57711;53.196;19.638;2023-04-12T06:57:26;41.20;;;17.70;;
68379;SDS011;57711;53.196;19.638;2023-04-12T06:59:54;49.20;;;23.00;;
68379;SDS011;57711;53.196;19.638;2023-04-12T07:02:21;29.10;;;16.90;;
68379;SDS011;57711;53.196;19.638;2023-04-12T07:04:52;18.30;;;10.80;;
68379;SDS011;57711;53.196;19.638;2023-04-12T07:07:20;19.40;;;12.10;;
68379;SDS011;57711;53.196;19.638;2023-04-12T07:09:47;17.10;;;11.40;;
68379;SDS011;57711;53.196;19.638;2023-04-12T07:12:14;34.30;;;17.80;;
68379;SDS011;57711;53.196;19.638;2023-04-12T07:14:41;28.50;;;15.00;;
68379;SDS011;57711;53.196;19.638;2023-04-12T07:17:10;18.90;;;11.60;;
68379;SDS011;57711;53.196;19.638;2023-04-12T07:19:37;17.10;;;11.10;;
68379;SDS011;57711;53.196;19.638;2023-04-12T07:22:05;57.40;;;23.80;;
68379;SDS011;57711;53.196;19.638;2023-04-12T07:24:32;22.10;;;13.60;;
68379;SDS011;57711;53.196;19.638;2023-04-12T07:26:59;18.60;;;12.80;;
68379;SDS011;57711;53.196;19.638;2023-04-12T07:29:26;20.00;;;13.00;;
68379;SDS011;57711;53.196;19.638;2023-04-12T07:31:53;29.40;;;14.80;;
68379;SDS011;57711;53.196;19.638;2023-04-12T07:34:21;26.20;;;13.50;;
68379;SDS011;57711;53.196;19.638;2023-04-12T07:36:48;23.40;;;13.80;;
68379;SDS011;57711;53.196;19.638;2023-04-12T07:39:15;17.80;;;10.90;;
68379;SDS011;57711;53.196;19.638;2023-04-12T07:41:42;24.00;;;14.70;;
68379;SDS011;57711;53.196;19.638;2023-04-12T07:44:12;18.80;;;12.70;;
68379;SDS011;57711;53.196;19.638;2023-04-12T07:46:39;24.90;;;14.50;;
68379;SDS011;57711;53.196;19.638;2023-04-12T07:49:07;33.70;;;14.70;;
68379;SDS011;57711;53.196;19.638;2023-04-12T07:51:36;22.90;;;13.80;;
68379;SDS011;57711;53.196;19.638;2023-04-12T07:54:03;18.40;;;12.80;;
68379;SDS011;57711;53.196;19.638;2023-04-12T07:56:33;21.10;;;14.20;;
68379;SDS011;57711;53.196;19.638;2023-04-12T07:59:01;25.40;;;14.90;;
68379;SDS011;57711;53.196;19.638;2023-04-12T08:01:28;17.10;;;11.70;;
68379;SDS011;57711;53.196;19.638;2023-04-12T08:03:56;15.50;;;11.20;;
68379;SDS011;57711;53.196;19.638;2023-04-12T08:06:24;14.40;;;10.60;;
68379;SDS011;57711;53.196;19.638;2023-04-12T08:08:57;24.30;;;12.60;;
68379;SDS011;57711;53.196;19.638;2023-04-12T08:11:24;76.30;;;29.30;;
68379;SDS011;57711;53.196;19.638;2023-04-12T08:13:51;30.60;;;14.50;;
68379;SDS011;57711;53.196;19.638;2023-04-12T08:16:19;20.00;;;12.10;;
68379;SDS011;57711;53.196;19.638;2023-04-12T08:18:46;54.60;;;32.20;;
68379;SDS011;57711;53.196;19.638;2023-04-12T08:21:14;26.70;;;15.50;;
68379;SDS011;57711;53.196;19.638;2023-04-12T08:23:41;23.10;;;13.80;;
68379;SDS011;57711;53.196;19.638;2023-04-12T08:26:08;19.80;;;14.10;;
68379;SDS011;57711;53.196;19.638;2023-04-12T08:28:35;16.80;;;10.90;;
68379;SDS011;57711;53.196;19.638;2023-04-12T08:31:05;36.30;;;18.10;;
68379;SDS011;57711;53.196;19.638;2023-04-12T08:33:33;24.50;;;15.90;;
68379;SDS011;57711;53.196;19.638;2023-04-12T08:36:00;22.70;;;14.40;;
68379;SDS011;57711;53.196;19.638;2023-04-12T08:38:27;16.40;;;10.80;;
68379;SDS011;57711;53.196;19.638;2023-04-12T08:41:11;17.50;;;11.30;;
68379;SDS011;57711;53.196;19.638;2023-04-12T08:43:41;17.30;;;11.00;;
68379;SDS011;57711;53.196;19.638;2023-04-12T08:46:10;29.40;;;15.30;;
68379;SDS011;57711;53.196;19.638;2023-04-12T08:48:45;28.30;;;14.20;;
68379;SDS011;57711;53.196;19.638;2023-04-12T08:51:18;17.30;;;10.70;;
68379;SDS011;57711;53.196;19.638;2023-04-12T08:53:46;18.70;;;11.10;;
68379;SDS011;57711;53.196;19.638;2023-04-12T08:56:14;14.60;;;9.60;;
68379;SDS011;57711;53.196;19.638;2023-04-12T08:58:45;14.20;;;8.90;;
68379;SDS011;57711;53.196;19.638;2023-04-12T09:01:19;11.00;;;8.00;;
68379;SDS011;57711;53.196;19.638;2023-04-12T09:03:47;15.80;;;9.70;;
68379;SDS011;57711;53.196;19.638;2023-04-12T09:06:14;48.90;;;23.60;;
68379;SDS011;57711;53.196;19.638;2023-04-12T09:08:54;12.90;;;7.90;;
68379;SDS011;57711;53.196;19.638;2023-04-12T09:11:23;12.50;;;7.20;;
68379;SDS011;57711;53.196;19.638;2023-04-12T09:13:52;22.90;;;12.40;;
68379;SDS011;57711;53.196;19.638;2023-04-12T09:16:32;22.50;;;12.50;;
68379;SDS011;57711;53.196;19.638;2023-04-12T09:19:00;20.30;;;12.30;;
68379;SDS011;57711;53.196;19.638;2023-04-12T09:21:31;13.80;;;9.60;;
68379;SDS011;57711;53.196;19.638;2023-04-12T09:26:42;11.20;;;7.50;;
68379;SDS011;57711;53.196;19.638;2023-04-12T09:29:20;25.10;;;15.10;;
68379;SDS011;57711;53.196;19.638;2023-04-12T09:32:02;23.40;;;14.20;;
68379;SDS011;57711;53.196;19.638;2023-04-12T09:34:32;28.10;;;17.00;;
68379;SDS011;57711;53.196;19.638;2023-04-12T09:37:12;44.50;;;22.50;;
68379;SDS011;57711;53.196;19.638;2023-04-12T09:39:41;23.90;;;13.40;;
68379;SDS011;57711;53.196;19.638;2023-04-12T09:42:10;20.90;;;11.40;;
68379;SDS011;57711;53.196;19.638;2023-04-12T09:44:58;20.90;;;14.10;;
68379;SDS011;57711;53.196;19.638;2023-04-12T09:47:37;20.70;;;15.20;;
68379;SDS011;57711;53.196;19.638;2023-04-12T09:50:06;19.20;;;12.70;;
68379;SDS011;57711;53.196;19.638;2023-04-12T09:52:37;31.30;;;20.50;;
68379;SDS011;57711;53.196;19.638;2023-04-12T09:55:07;19.10;;;11.10;;
68379;SDS011;57711;53.196;19.638;2023-04-12T09:57:40;157.00;;;107.30;;
68379;SDS011;57711;53.196;19.638;2023-04-12T10:00:09;38.50;;;26.70;;
68379;SDS011;57711;53.196;19.638;2023-04-12T10:02:40;48.40;;;25.70;;
68379;SDS011;57711;53.196;19.638;2023-04-12T10:05:13;26.60;;;15.10;;
68379;SDS011;57711;53.196;19.638;2023-04-12T10:07:43;77.50;;;47.20;;
68379;SDS011;57711;53.196;19.638;2023-04-12T10:10:11;14.80;;;11.20;;
68379;SDS011;57711;53.196;19.638;2023-04-12T10:12:40;19.50;;;11.30;;
68379;SDS011;57711;53.196;19.638;2023-04-12T10:15:09;21.80;;;10.80;;
68379;SDS011;57711;53.196;19.638;2023-04-12T10:17:42;15.40;;;11.30;;
68379;SDS011;57711;53.196;19.638;2023-04-12T10:20:17;21.80;;;12.60;;
68379;SDS011;57711;53.196;19.638;2023-04-12T10:22:51;12.10;;;8.20;;
68379;SDS011;57711;53.196;19.638;2023-04-12T10:25:22;12.40;;;9.00;;
68379;SDS011;57711;53.196;19.638;2023-04-12T10:27:51;8.60;;;6.30;;
68379;SDS011;57711;53.196;19.638;2023-04-12T10:35:54;22.20;;;13.10;;
68379;SDS011;57711;53.196;19.638;2023-04-12T10:38:29;29.50;;;12.30;;
68379;SDS011;57711;53.196;19.638;2023-04-12T10:41:15;42.30;;;19.40;;
68379;SDS011;57711;53.196;19.638;2023-04-12T10:43:44;36.60;;;17.90;;
68379;SDS011;57711;53.196;19.638;2023-04-12T10:46:45;61.70;;;26.10;;
68379;SDS011;57711;53.196;19.638;2023-04-12T10:49:13;28.30;;;14.20;;
68379;SDS011;57711;53.196;19.638;2023-04-12T10:56:56;64.40;;;23.10;;
68379;SDS011;57711;53.196;19.638;2023-04-12T11:02:20;26.40;;;15.10;;
68379;SDS011;57711;53.196;19.638;2023-04-12T11:05:08;36.80;;;16.60;;
68379;SDS011;57711;53.196;19.638;2023-04-12T11:08:12;20.90;;;11.40;;
68379;SDS011;57711;53.196;19.638;2023-04-12T11:11:19;22.30;;;13.50;;
68379;SDS011;57711;53.196;19.638;2023-04-12T11:13:52;20.90;;;11.70;;
68379;SDS011;57711;53.196;19.638;2023-04-12T11:16:21;14.20;;;9.00;;
68379;SDS011;57711;53.196;19.638;2023-04-12T11:18:48;21.10;;;11.00;;
68379;SDS011;57711;53.196;19.638;2023-04-12T11:21:17;32.00;;;14.70;;
68379;SDS011;57711;53.196;19.638;2023-04-12T11:23:45;15.90;;;9.20;;
68379;SDS011;57711;53.196;19.638;2023-04-12T11:26:18;20.70;;;13.20;;
68379;SDS011;57711;53.196;19.638;2023-04-12T11:28:46;26.90;;;13.00;;
68379;SDS011;57711;53.196;19.638;2023-04-12T11:31:18;31.50;;;15.40;;
68379;SDS011;57711;53.196;19.638;2023-04-12T11:33:46;19.30;;;11.20;;
68379;SDS011;57711;53.196;19.638;2023-04-12T11:36:13;29.00;;;14.90;;
68379;SDS011;57711;53.196;19.638;2023-04-12T11:38:41;32.80;;;11.90;;
68379;SDS011;57711;53.196;19.638;2023-04-12T11:41:13;39.20;;;15.20;;
68379;SDS011;57711;53.196;19.638;2023-04-12T11:43:43;40.90;;;16.70;;
68379;SDS011;57711;53.196;19.638;2023-04-12T11:46:11;40.60;;;19.20;;
68379;SDS011;57711;53.196;19.638;2023-04-12T11:48:43;28.50;;;16.30;;
68379;SDS011;57711;53.196;19.638;2023-04-12T11:51:21;27.60;;;14.30;;
68379;SDS011;57711;53.196;19.638;2023-04-12T11:53:56;39.60;;;23.40;;
68379;SDS011;57711;53.196;19.638;2023-04-12T11:56:25;28.50;;;15.70;;
68379;SDS011;57711;53.196;19.638;2023-04-12T11:58:54;17.90;;;12.10;;
68379;SDS011;57711;53.196;19.638;2023-04-12T12:01:21;14.40;;;9.60;;
68379;SDS011;57711;53.196;19.638;2023-04-12T12:03:49;13.60;;;9.80;;
68379;SDS011;57711;53.196;19.638;2023-04-12T12:06:17;18.20;;;11.60;;
68379;SDS011;57711;53.196;19.638;2023-04-12T12:08:46;12.90;;;9.50;;
68379;SDS011;57711;53.196;19.638;2023-04-12T12:11:19;11.70;;;8.90;;
68379;SDS011;57711;53.196;19.638;2023-04-12T12:13:48;16.30;;;9.50;;
68379;SDS011;57711;53.196;19.638;2023-04-12T12:16:23;13.40;;;8.90;;
68379;SDS011;57711;53.196;19.638;2023-04-12T12:18:52;17.20;;;10.50;;
68379;SDS011;57711;53.196;19.638;2023-04-12T12:21:19;12.50;;;8.10;;
68379;SDS011;57711;53.196;19.638;2023-04-12T12:23:47;11.50;;;7.60;;
68379;SDS011;57711;53.196;19.638;2023-04-12T12:26:21;13.40;;;9.60;;
68379;SDS011;57711;53.196;19.638;2023-04-12T12:28:51;13.30;;;7.80;;
68379;SDS011;57711;53.196;19.638;2023-04-12T12:31:23;11.80;;;7.60;;
68379;SDS011;57711;53.196;19.638;2023-04-12T12:33:54;11.30;;;8.90;;
68379;SDS011;57711;53.196;19.638;2023-04-12T12:36:30;12.40;;;8.00;;
68379;SDS011;57711;53.196;19.638;2023-04-12T12:39:02;20.90;;;9.20;;
68379;SDS011;57711;53.196;19.638;2023-04-12T12:41:33;15.80;;;8.80;;
68379;SDS011;57711;53.196;19.638;2023-04-12T12:44:01;10.50;;;7.20;;
68379;SDS011;57711;53.196;19.638;2023-04-12T12:46:28;13.30;;;8.40;;
68379;SDS011;57711;53.196;19.638;2023-04-12T12:49:16;14.90;;;8.00;;
68379;SDS011;57711;53.196;19.638;2023-04-12T12:51:43;9.20;;;6.80;;
68379;SDS011;57711;53.196;19.638;2023-04-12T12:54:11;10.00;;;7.30;;
68379;SDS011;57711;53.196;19.638;2023-04-12T12:56:38;10.90;;;7.40;;
68379;SDS011;57711;53.196;19.638;2023-04-12T12:59:05;12.60;;;7.00;;
68379;SDS011;57711;53.196;19.638;2023-04-12T13:01:32;8.20;;;7.00;;
68379;SDS011;57711;53.196;19.638;2023-04-12T13:03:59;10.40;;;6.80;;
68379;SDS011;57711;53.196;19.638;2023-04-12T13:06:27;9.70;;;6.70;;
68379;SDS011;57711;53.196;19.638;2023-04-12T13:08:54;11.90;;;6.60;;
68379;SDS011;57711;53.196;19.638;2023-04-12T13:11:22;8.50;;;6.50;;
68379;SDS011;57711;53.196;19.638;2023-04-12T13:13:49;9.80;;;5.90;;
68379;SDS011;57711;53.196;19.638;2023-04-12T13:16:16;12.20;;;7.80;;
68379;SDS011;57711;53.196;19.638;2023-04-12T13:18:43;9.60;;;7.00;;
68379;SDS011;57711;53.196;19.638;2023-04-12T13:21:11;13.80;;;7.00;;
68379;SDS011;57711;53.196;19.638;2023-04-12T13:23:38;12.20;;;8.30;;
68379;SDS011;57711;53.196;19.638;2023-04-12T13:26:05;19.80;;;11.30;;
68379;SDS011;57711;53.196;19.638;2023-04-12T13:28:32;21.60;;;10.40;;
68379;SDS011;57711;53.196;19.638;2023-04-12T13:30:59;14.10;;;10.40;;
68379;SDS011;57711;53.196;19.638;2023-04-12T13:33:27;14.30;;;8.80;;
68379;SDS011;57711;53.196;19.638;2023-04-12T13:35:54;12.90;;;8.20;;
68379;SDS011;57711;53.196;19.638;2023-04-12T13:38:21;8.70;;;6.90;;
68379;SDS011;57711;53.196;19.638;2023-04-12T13:40:49;20.90;;;12.10;;
68379;SDS011;57711;53.196;19.638;2023-04-12T13:43:16;14.20;;;9.70;;
68379;SDS011;57711;53.196;19.638;2023-04-12T13:45:43;10.10;;;7.10;;
68379;SDS011;57711;53.196;19.638;2023-04-12T13:48:10;13.40;;;8.20;;
68379;SDS011;57711;53.196;19.638;2023-04-12T13:50:38;15.10;;;8.40;;
68379;SDS011;57711;53.196;19.638;2023-04-12T13:53:05;35.90;;;19.70;;
68379;SDS011;57711;53.196;19.638;2023-04-12T13:55:32;25.00;;;14.40;;
68379;SDS011;57711;53.196;19.638;2023-04-12T13:57:59;8.90;;;7.10;;
68379;SDS011;57711;53.196;19.638;2023-04-12T14:00:26;83.40;;;37.60;;
68379;SDS011;57711;53.196;19.638;2023-04-12T14:02:54;56.70;;;28.30;;
68379;SDS011;57711;53.196;19.638;2023-04-12T14:05:22;16.50;;;8.20;;
68379;SDS011;57711;53.196;19.638;2023-04-12T14:07:49;13.70;;;6.50;;
68379;SDS011;57711;53.196;19.638;2023-04-12T14:10:18;7.20;;;5.70;;
68379;SDS011;57711;53.196;19.638;2023-04-12T14:12:45;21.60;;;11.70;;
68379;SDS011;57711;53.196;19.638;2023-04-12T14:15:12;20.40;;;10.00;;
68379;SDS011;57711;53.196;19.638;2023-04-12T14:17:39;23.20;;;9.90;;
68379;SDS011;57711;53.196;19.638;2023-04-12T14:20:07;12.00;;;7.90;;
68379;SDS011;57711;53.196;19.638;2023-04-12T14:22:38;10.20;;;6.90;;
68379;SDS011;57711;53.196;19.638;2023-04-12T14:25:05;14.30;;;7.40;;
68379;SDS011;57711;53.196;19.638;2023-04-12T14:27:33;10.70;;;8.20;;
68379;SDS011;57711;53.196;19.638;2023-04-12T14:30:01;13.00;;;7.40;;
68379;SDS011;57711;53.196;19.638;2023-04-12T14:32:28;11.20;;;8.00;;
68379;SDS011;57711;53.196;19.638;2023-04-12T14:34:55;13.20;;;7.70;;
68379;SDS011;57711;53.196;19.638;2023-04-12T14:37:22;41.80;;;19.70;;
68379;SDS011;57711;53.196;19.638;2023-04-12T14:39:52;290.00;;;92.70;;
68379;SDS011;57711;53.196;19.638;2023-04-12T14:42:20;133.40;;;42.20;;
68379;SDS011;57711;53.196;19.638;2023-04-12T14:44:47;527.10;;;182.40;;
68379;SDS011;57711;53.196;19.638;2023-04-12T14:47:14;772.20;;;293.90;;
68379;SDS011;57711;53.196;19.638;2023-04-12T14:49:41;566.70;;;205.90;;
68379;SDS011;57711;53.196;19.638;2023-04-12T14:52:08;333.00;;;98.20;;
68379;SDS011;57711;53.196;19.638;2023-04-12T14:54:35;95.50;;;33.20;;
68379;SDS011;57711;53.196;19.638;2023-04-12T14:57:02;35.20;;;14.50;;
68379;SDS011;57711;53.196;19.638;2023-04-12T14:59:30;72.20;;;26.50;;
68379;SDS011;57711;53.196;19.638;2023-04-12T15:01:57;31.70;;;13.00;;